createdAt,value
2019-02-06T00:00:47.318Z,11.50
2019-02-06T00:03:24.940Z,10.83
2019-02-06T00:05:55.578Z,10.63
2019-02-06T00:08:27.327Z,11.13
2019-02-06T00:10:58.134Z,10.93
2019-02-06T00:13:29.343Z,10.87
2019-02-06T00:16:00.450Z,10.37
2019-02-06T00:18:32.025Z,11.13
2019-02-06T00:21:02.601Z,10.50
2019-02-06T00:23:33.821Z,10.57
2019-02-06T00:26:05.218Z,10.63
2019-02-06T00:28:36.048Z,10.40
2019-02-06T00:31:06.887Z,9.93
2019-02-06T00:33:39.689Z,10.50
2019-02-06T00:36:10.381Z,9.80
2019-02-06T00:38:41.027Z,10.90
2019-02-06T00:41:13.215Z,10.17
2019-02-06T00:43:44.008Z,10.40
2019-02-06T00:46:15.591Z,10.43
2019-02-06T00:49:06.387Z,10.80
2019-02-06T00:51:37.095Z,9.77
2019-02-06T00:54:09.387Z,10.10
2019-02-06T00:56:40.029Z,10.60
2019-02-06T00:59:11.137Z,10.50
2019-02-06T01:01:41.907Z,10.30
2019-02-06T01:04:12.727Z,9.47
2019-02-06T01:06:43.727Z,9.50
2019-02-06T01:09:14.609Z,9.47
2019-02-06T01:11:45.024Z,10.03
2019-02-06T01:14:15.599Z,10.07
2019-02-06T01:16:46.701Z,10.57
2019-02-06T01:19:17.581Z,9.90
2019-02-06T01:21:48.789Z,9.00
2019-02-06T01:24:19.893Z,9.43
2019-02-06T01:26:50.388Z,9.53
2019-02-06T01:29:20.891Z,9.50
2019-02-06T01:31:53.389Z,9.70
2019-02-06T01:34:24.211Z,9.47
2019-02-06T01:36:55.807Z,10.00
2019-02-06T01:39:26.692Z,10.07
2019-02-06T01:41:57.290Z,10.20
2019-02-06T01:44:28.612Z,10.37
2019-02-06T01:46:59.484Z,9.83
2019-02-06T01:49:30.078Z,10.40
2019-02-06T01:52:01.615Z,10.20
2019-02-06T01:54:33.763Z,10.00
2019-02-06T01:57:04.771Z,10.70
2019-02-06T01:59:35.694Z,10.47
2019-02-06T02:02:07.102Z,10.80
2019-02-06T02:04:37.888Z,10.73
2019-02-06T02:07:08.659Z,10.47
2019-02-06T02:09:40.377Z,9.93
2019-02-06T02:12:11.310Z,9.40
2019-02-06T02:14:42.187Z,9.60
2019-02-06T02:17:13.750Z,9.90
2019-02-06T02:19:44.626Z,8.50
2019-02-06T02:22:14.896Z,10.00
2019-02-06T02:24:45.409Z,9.43
2019-02-06T02:27:16.291Z,9.40
2019-02-06T02:29:47.759Z,9.70
2019-02-06T02:32:18.611Z,9.30
2019-02-06T02:34:50.290Z,10.17
2019-02-06T02:37:22.750Z,9.80
2019-02-06T02:39:53.385Z,9.40
2019-02-06T02:42:24.449Z,9.67
2019-02-06T02:44:54.933Z,9.37
2019-02-06T02:47:25.905Z,9.10
2019-02-06T02:49:56.332Z,9.43
2019-02-06T02:52:27.319Z,10.13
2019-02-06T02:54:57.864Z,9.50
2019-02-06T02:57:28.904Z,9.30
2019-02-06T02:59:59.628Z,9.37
2019-02-06T03:02:44.731Z,9.23
2019-02-06T03:05:19.666Z,9.70
2019-02-06T03:07:50.732Z,9.87
2019-02-06T03:10:22.747Z,9.27
2019-02-06T03:12:53.250Z,8.90
2019-02-06T03:15:24.272Z,8.53
2019-02-06T03:17:55.175Z,9.10
2019-02-06T03:20:26.285Z,9.43
2019-02-06T03:22:57.304Z,9.40
2019-02-06T03:25:28.291Z,8.60
2019-02-06T03:27:59.104Z,8.27
2019-02-06T03:30:32.237Z,9.03
2019-02-06T03:33:02.998Z,9.60
2019-02-06T03:35:33.727Z,8.93
2019-02-06T03:38:04.613Z,8.13
2019-02-06T03:40:35.992Z,8.90
2019-02-06T03:43:06.669Z,8.93
2019-02-06T03:45:37.175Z,9.07
2019-02-06T03:48:07.577Z,8.67
2019-02-06T03:50:38.857Z,9.40
2019-02-06T03:53:10.734Z,7.27
2019-02-06T03:55:42.021Z,8.30
2019-02-06T03:58:12.576Z,8.00
2019-02-06T04:00:44.328Z,9.17
2019-02-06T04:03:14.951Z,8.40
2019-02-06T04:05:45.414Z,8.47
2019-02-06T04:08:15.832Z,9.20
2019-02-06T04:10:46.325Z,9.23
2019-02-06T04:13:16.864Z,9.43
2019-02-06T04:15:47.728Z,7.70
2019-02-06T04:18:18.498Z,10.00
2019-02-06T04:20:49.420Z,8.73
2019-02-06T04:23:20.459Z,8.33
2019-02-06T04:25:51.951Z,8.03
2019-02-06T04:28:22.531Z,8.50
2019-02-06T04:30:53.571Z,8.60
2019-02-06T04:33:24.599Z,9.23
2019-02-06T04:35:55.659Z,8.53
2019-02-06T04:38:25.977Z,8.40
2019-02-06T04:40:56.458Z,9.10
2019-02-06T04:43:27.341Z,8.40
2019-02-06T04:46:02.333Z,8.90
2019-02-06T04:48:32.861Z,9.50
2019-02-06T04:51:04.128Z,8.90
2019-02-06T04:53:35.054Z,8.63
2019-02-06T04:56:06.159Z,8.60
2019-02-06T04:58:37.732Z,8.57
2019-02-06T05:01:08.637Z,9.00
2019-02-06T05:03:39.146Z,9.50
2019-02-06T05:06:10.253Z,8.47
2019-02-06T05:08:41.343Z,8.80
2019-02-06T05:11:12.144Z,8.30
2019-02-06T05:13:42.566Z,7.83
2019-02-06T05:16:14.231Z,9.63
2019-02-06T05:18:44.924Z,9.37
2019-02-06T05:21:15.327Z,9.20
2019-02-06T05:23:47.128Z,9.30
2019-02-06T05:26:17.765Z,8.50
2019-02-06T05:28:48.652Z,8.90
2019-02-06T05:31:19.698Z,9.70
2019-02-06T05:33:50.460Z,9.00
2019-02-06T05:36:21.067Z,8.10
2019-02-06T05:38:51.702Z,9.43
2019-02-06T05:41:22.307Z,8.50
2019-02-06T05:43:53.786Z,9.30
2019-02-06T05:46:24.549Z,9.00
2019-02-06T05:48:55.985Z,8.77
2019-02-06T05:51:26.540Z,9.30
2019-02-06T05:53:57.538Z,8.97
2019-02-06T05:56:28.260Z,8.87
2019-02-06T05:58:59.472Z,9.30
2019-02-06T06:01:30.388Z,9.30
2019-02-06T06:04:01.981Z,8.93
2019-02-06T06:06:32.876Z,9.80
2019-02-06T06:09:04.934Z,9.53
2019-02-06T06:11:36.289Z,9.77
2019-02-06T06:14:07.440Z,9.80
2019-02-06T06:16:37.768Z,8.53
2019-02-06T06:19:08.923Z,8.97
2019-02-06T06:21:39.261Z,9.47
2019-02-06T06:24:10.580Z,9.17
2019-02-06T06:26:41.226Z,9.40
2019-02-06T06:29:11.819Z,8.53
2019-02-06T06:31:42.438Z,9.77
2019-02-06T06:34:12.950Z,9.13
2019-02-06T06:36:43.737Z,9.37
2019-02-06T06:39:14.766Z,9.00
2019-02-06T06:41:45.750Z,9.43
2019-02-06T06:44:16.247Z,9.03
2019-02-06T06:46:47.585Z,8.97
2019-02-06T06:49:18.563Z,9.30
2019-02-06T06:51:49.171Z,8.83
2019-02-06T06:54:19.946Z,8.40
2019-02-06T06:56:50.794Z,9.67
2019-02-06T06:59:21.542Z,9.80
2019-02-06T07:01:52.130Z,9.13
2019-02-06T07:04:22.866Z,8.93
2019-02-06T07:06:53.633Z,8.40
2019-02-06T07:09:27.738Z,9.30
2019-02-06T07:11:58.724Z,8.43
2019-02-06T07:14:29.283Z,8.60
2019-02-06T07:17:01.094Z,9.03
2019-02-06T07:19:31.652Z,8.60
2019-02-06T07:22:02.577Z,8.87
2019-02-06T07:24:33.666Z,8.07
2019-02-06T07:27:04.271Z,7.63
2019-02-06T07:29:35.825Z,8.60
2019-02-06T07:32:06.511Z,9.40
2019-02-06T07:34:37.530Z,8.53
2019-02-06T07:37:08.099Z,9.13
2019-02-06T07:39:38.756Z,8.20
2019-02-06T07:42:10.691Z,7.60
2019-02-06T07:44:42.013Z,7.93
2019-02-06T07:47:13.693Z,7.93
2019-02-06T07:49:44.785Z,8.17
2019-02-06T07:52:15.176Z,8.10
2019-02-06T07:54:46.973Z,8.90
2019-02-06T07:57:17.547Z,8.90
2019-02-06T07:59:48.289Z,8.97
2019-02-06T08:02:19.021Z,8.20
2019-02-06T08:04:50.037Z,8.70
2019-02-06T08:07:21.747Z,9.10
2019-02-06T08:09:52.713Z,9.37
2019-02-06T08:12:23.467Z,8.70
2019-02-06T08:14:55.158Z,9.57
2019-02-06T08:17:25.936Z,9.80
2019-02-06T08:19:57.288Z,9.90
2019-02-06T08:22:28.097Z,10.20
2019-02-06T08:24:59.030Z,9.60
2019-02-06T08:27:30.383Z,9.70
2019-02-06T08:30:01.255Z,9.50
2019-02-06T08:32:31.794Z,10.23
2019-02-06T08:35:02.297Z,10.67
2019-02-06T08:37:33.199Z,9.57
2019-02-06T08:40:03.634Z,10.10
2019-02-06T08:42:34.351Z,11.20
2019-02-06T08:45:05.800Z,12.97
2019-02-06T08:47:36.430Z,17.00
2019-02-06T08:50:09.231Z,16.30
2019-02-06T08:52:42.989Z,21.70
2019-02-06T08:55:16.637Z,19.90
2019-02-06T08:57:47.695Z,19.57
2019-02-06T09:00:22.535Z,19.30
2019-02-06T09:02:53.588Z,19.80
2019-02-06T09:05:24.093Z,21.07
2019-02-06T09:07:54.519Z,20.27
2019-02-06T09:10:25.434Z,22.77
2019-02-06T09:12:56.537Z,22.07
2019-02-06T09:15:27.603Z,22.57
2019-02-06T09:17:58.570Z,24.40
2019-02-06T09:20:30.478Z,22.33
2019-02-06T09:23:01.842Z,24.10
2019-02-06T09:25:32.367Z,24.30
2019-02-06T09:28:03.800Z,25.70
2019-02-06T09:30:35.948Z,26.43
2019-02-06T09:33:08.865Z,29.93
2019-02-06T09:35:40.214Z,30.57
2019-02-06T09:38:10.711Z,31.60
2019-02-06T09:40:43.023Z,33.33
2019-02-06T09:43:13.618Z,33.83
2019-02-06T09:45:44.353Z,34.83
2019-02-06T09:48:15.540Z,36.27
2019-02-06T09:50:46.914Z,39.27
2019-02-06T09:53:18.175Z,36.30
2019-02-06T09:55:48.941Z,37.53
2019-02-06T09:58:20.227Z,37.30
2019-02-06T10:00:51.306Z,37.17
2019-02-06T10:03:22.094Z,37.80
2019-02-06T10:05:52.831Z,35.80
2019-02-06T10:08:24.102Z,34.83
2019-02-06T10:10:54.823Z,35.17
2019-02-06T10:13:26.222Z,36.13
2019-02-06T10:15:57.342Z,35.00
2019-02-06T10:18:28.078Z,35.10
2019-02-06T10:20:58.721Z,33.93
2019-02-06T10:23:29.209Z,31.80
2019-02-06T10:25:59.782Z,31.40
2019-02-06T10:28:30.539Z,29.83
2019-02-06T10:31:01.481Z,30.37
2019-02-06T10:33:32.010Z,29.90
2019-02-06T10:36:04.902Z,29.50
2019-02-06T10:38:36.321Z,27.67
2019-02-06T10:41:07.448Z,27.73
2019-02-06T10:43:37.841Z,25.97
2019-02-06T10:46:08.496Z,24.60
2019-02-06T10:48:39.159Z,24.90
2019-02-06T10:51:09.934Z,23.90
2019-02-06T10:53:41.356Z,24.93
2019-02-06T10:56:13.897Z,23.60
2019-02-06T10:58:44.666Z,23.40
2019-02-06T11:01:16.304Z,22.10
2019-02-06T11:03:47.149Z,20.83
2019-02-06T11:06:17.621Z,19.90
2019-02-06T11:08:49.354Z,21.50
2019-02-06T11:11:19.893Z,19.73
2019-02-06T11:13:50.224Z,19.27
2019-02-06T11:16:20.976Z,18.10
2019-02-06T11:18:51.437Z,19.07
2019-02-06T11:21:22.868Z,19.07
2019-02-06T11:23:53.827Z,19.50
2019-02-06T11:26:24.490Z,18.13
2019-02-06T11:29:52.710Z,17.37
2019-02-06T11:32:23.614Z,17.80
2019-02-06T11:34:55.480Z,17.97
2019-02-06T11:37:27.598Z,17.23
2019-02-06T11:39:58.459Z,15.47
2019-02-06T11:42:29.201Z,16.27
2019-02-06T11:45:00.526Z,16.07
2019-02-06T11:47:31.347Z,15.40
2019-02-06T11:50:03.364Z,14.17
2019-02-06T11:52:33.902Z,14.27
2019-02-06T11:55:05.100Z,13.70
2019-02-06T11:57:36.146Z,14.97
2019-02-06T12:00:11.018Z,13.87
2019-02-06T12:02:42.376Z,13.70
2019-02-06T12:05:14.058Z,14.77
2019-02-06T12:07:46.341Z,16.37
2019-02-06T12:10:18.630Z,12.23
2019-02-06T12:12:49.743Z,12.93
2019-02-06T12:15:20.788Z,12.40
2019-02-06T12:17:51.855Z,12.30
2019-02-06T12:20:23.473Z,10.80
2019-02-06T12:22:55.292Z,11.87
2019-02-06T12:25:26.144Z,13.00
2019-02-06T12:27:59.599Z,12.33
2019-02-06T12:30:33.382Z,12.50
2019-02-06T12:33:05.335Z,11.00
2019-02-06T12:35:37.457Z,12.03
2019-02-06T12:38:08.782Z,11.73
2019-02-06T12:40:40.256Z,11.00
2019-02-06T12:43:12.322Z,11.67
2019-02-06T12:45:44.085Z,11.70
2019-02-06T12:48:14.735Z,11.40
2019-02-06T12:50:45.890Z,12.20
2019-02-06T12:53:16.622Z,11.10
2019-02-06T12:55:48.678Z,12.23
2019-02-06T12:58:19.716Z,11.67
2019-02-06T13:00:50.389Z,11.57
2019-02-06T13:03:20.901Z,12.30
2019-02-06T13:05:52.128Z,11.60
2019-02-06T13:08:23.513Z,11.70
2019-02-06T13:10:53.917Z,12.43
2019-02-06T13:13:24.626Z,11.70
2019-02-06T13:15:55.029Z,12.00
2019-02-06T13:18:25.729Z,12.03
2019-02-06T13:20:56.477Z,12.07
2019-02-06T13:23:28.145Z,12.10
2019-02-06T13:25:59.547Z,12.03
2019-02-06T13:28:30.858Z,12.20
2019-02-06T13:31:01.724Z,11.60
2019-02-06T13:33:32.953Z,12.00
2019-02-06T13:36:06.734Z,11.80
2019-02-06T13:38:37.627Z,11.83
2019-02-06T13:41:09.486Z,11.37
2019-02-06T13:43:39.150Z,11.50
2019-02-06T13:46:10.306Z,12.53
2019-02-06T13:48:41.190Z,12.97
2019-02-06T13:51:16.532Z,13.10
2019-02-06T13:53:45.463Z,14.73
2019-02-06T13:56:16.343Z,13.63
2019-02-06T13:58:47.828Z,13.37
2019-02-06T14:01:25.356Z,14.70
2019-02-06T14:03:52.358Z,13.93
2019-02-06T14:06:24.231Z,13.33
2019-02-06T14:08:55.119Z,12.60
2019-02-06T14:11:26.523Z,13.50
2019-02-06T14:13:59.041Z,13.50
2019-02-06T14:16:30.293Z,13.67
2019-02-06T14:19:01.264Z,14.23
2019-02-06T14:21:32.022Z,14.47
2019-02-06T14:24:43.610Z,13.43
2019-02-06T14:27:27.316Z,13.50
2019-02-06T14:30:47.371Z,13.50
2019-02-06T14:34:00.493Z,13.50
2019-02-06T14:37:12.275Z,13.90
2019-02-06T14:40:01.515Z,13.40
2019-02-06T14:43:03.505Z,14.87
2019-02-06T14:46:13.900Z,14.37
2019-02-06T14:49:08.301Z,14.40
2019-02-06T14:52:12.935Z,15.50
2019-02-06T14:55:27.764Z,14.93
2019-02-06T14:58:46.247Z,14.60
2019-02-06T15:02:05.716Z,15.80
2019-02-06T15:05:12.561Z,14.77
2019-02-06T15:07:53.260Z,14.97
2019-02-06T15:11:19.680Z,14.57
2019-02-06T15:14:11.434Z,15.93
2019-02-06T15:17:18.827Z,15.87
2019-02-06T15:20:16.097Z,14.73
2019-02-06T15:23:33.105Z,16.00
2019-02-06T15:26:33.005Z,14.80
2019-02-06T15:29:35.619Z,16.10
2019-02-06T15:32:47.837Z,14.40
2019-02-06T15:35:57.775Z,14.90
2019-02-06T15:39:04.471Z,15.00
2019-02-06T15:42:07.929Z,14.83
2019-02-06T15:45:08.458Z,14.13
2019-02-06T15:47:56.632Z,16.23
2019-02-06T15:51:16.100Z,14.60
2019-02-06T15:54:31.531Z,14.17
2019-02-06T15:57:34.787Z,13.93
2019-02-06T16:00:48.152Z,12.67
2019-02-06T16:03:55.654Z,14.60
2019-02-06T16:06:55.818Z,12.90
2019-02-06T16:10:09.411Z,13.97
2019-02-06T16:13:05.214Z,14.53
2019-02-06T16:16:27.195Z,15.13
2019-02-06T16:19:19.857Z,14.50
2019-02-06T16:22:18.192Z,14.50
2019-02-06T16:25:30.006Z,13.60
2019-02-06T16:28:49.964Z,13.57
2019-02-06T16:31:46.100Z,14.67
2019-02-06T16:34:54.466Z,14.73
2019-02-06T16:37:51.253Z,15.73
2019-02-06T16:41:00.225Z,14.50
2019-02-06T16:44:03.148Z,15.57
2019-02-06T16:47:13.097Z,14.83
2019-02-06T16:50:37.535Z,14.43
2019-02-06T16:53:30.270Z,14.10
2019-02-06T16:56:48.380Z,14.80
2019-02-06T17:00:17.031Z,15.27
2019-02-06T17:03:17.661Z,15.63
2019-02-06T17:06:25.106Z,16.27
2019-02-06T17:09:42.866Z,16.00
2019-02-06T17:12:48.352Z,16.03
2019-02-06T17:15:55.241Z,15.17
2019-02-06T17:19:24.773Z,16.13
2019-02-06T17:22:47.158Z,17.17
2019-02-06T17:26:10.230Z,16.33
2019-02-06T17:29:21.814Z,15.43
2019-02-06T17:32:36.706Z,16.63
2019-02-06T17:35:27.383Z,17.77
2019-02-06T17:38:30.835Z,19.00
2019-02-06T17:41:29.221Z,16.97
2019-02-06T17:44:34.079Z,18.53
2019-02-06T17:47:48.950Z,17.10
2019-02-06T17:50:56.040Z,17.03
2019-02-06T17:53:50.734Z,17.10
2019-02-06T17:56:21.710Z,17.83
2019-02-06T17:58:53.233Z,18.87
2019-02-06T18:01:45.417Z,18.03
2019-02-06T18:04:35.199Z,16.57
2019-02-06T18:07:07.099Z,17.30
2019-02-06T18:09:40.177Z,18.47
2019-02-06T18:12:12.433Z,16.83
2019-02-06T18:14:43.363Z,16.63
2019-02-06T18:17:15.720Z,16.63
2019-02-06T18:19:48.757Z,17.30
2019-02-06T18:22:22.507Z,17.40
2019-02-06T18:24:54.680Z,17.60
2019-02-06T18:27:26.717Z,17.60
2019-02-06T18:29:58.838Z,16.90
2019-02-06T18:32:30.796Z,16.70
2019-02-06T18:35:03.390Z,17.83
2019-02-06T18:37:43.274Z,16.80
2019-02-06T18:40:16.451Z,16.43
2019-02-06T18:42:49.110Z,16.57
2019-02-06T18:45:20.512Z,17.47
2019-02-06T18:47:58.326Z,17.50
2019-02-06T18:50:31.328Z,18.00
2019-02-06T18:53:05.747Z,18.50
2019-02-06T18:55:38.152Z,16.83
2019-02-06T18:58:11.110Z,17.30
2019-02-06T19:00:43.610Z,17.60
2019-02-06T19:03:26.645Z,18.27
2019-02-06T19:05:58.214Z,18.87
2019-02-06T19:08:34.737Z,19.00
2019-02-06T19:11:06.868Z,18.00
2019-02-06T19:13:40.618Z,18.67
2019-02-06T19:16:12.347Z,19.10
2019-02-06T19:18:44.826Z,17.70
2019-02-06T19:21:18.015Z,18.47
2019-02-06T19:23:49.692Z,20.40
2019-02-06T19:26:23.649Z,19.53
2019-02-06T19:28:55.537Z,18.60
2019-02-06T19:31:29.383Z,19.83
2019-02-06T19:34:02.993Z,19.03
2019-02-06T19:36:35.250Z,20.17
2019-02-06T19:39:10.929Z,18.60
2019-02-06T19:41:42.423Z,19.90
2019-02-06T19:44:16.679Z,19.60
2019-02-06T19:46:49.991Z,19.40
2019-02-06T19:49:24.302Z,19.20
2019-02-06T19:51:56.670Z,20.27
2019-02-06T19:54:30.330Z,19.20
2019-02-06T19:57:03.668Z,19.87
2019-02-06T19:59:34.779Z,20.20
2019-02-06T20:02:06.261Z,21.03
2019-02-06T20:04:40.503Z,20.40
2019-02-06T20:07:12.039Z,21.57
2019-02-06T20:09:46.314Z,21.03
2019-02-06T20:12:19.012Z,21.60
2019-02-06T20:14:50.195Z,20.87
2019-02-06T20:17:21.358Z,22.30
2019-02-06T20:19:55.141Z,20.97
2019-02-06T20:22:26.691Z,20.73
2019-02-06T20:24:58.322Z,22.00
2019-02-06T20:27:30.013Z,22.33
2019-02-06T20:30:02.621Z,23.83
2019-02-06T20:32:38.205Z,24.70
2019-02-06T20:35:11.384Z,28.10
2019-02-06T20:37:44.001Z,27.30
2019-02-06T20:40:21.641Z,29.27
2019-02-06T20:42:54.072Z,28.57
2019-02-06T20:45:28.064Z,29.83
2019-02-06T20:48:00.998Z,30.93
2019-02-06T20:50:36.627Z,29.83
2019-02-06T20:53:08.023Z,31.13
2019-02-06T20:55:42.768Z,30.00
2019-02-06T20:58:14.100Z,29.43
2019-02-06T21:00:46.658Z,27.87
2019-02-06T21:03:22.398Z,28.47
2019-02-06T21:05:54.486Z,29.30
2019-02-06T21:08:25.542Z,31.80
2019-02-06T21:11:02.617Z,28.40
2019-02-06T21:13:33.708Z,31.57
2019-02-06T21:16:05.957Z,28.73
2019-02-06T21:18:39.813Z,29.30
2019-02-06T21:21:11.229Z,28.77
2019-02-06T21:23:42.554Z,28.40
2019-02-06T21:26:14.869Z,28.23
2019-02-06T21:28:46.560Z,28.40
2019-02-06T21:31:18.826Z,27.33
2019-02-06T21:33:51.598Z,28.10
2019-02-06T21:36:23.632Z,27.40
2019-02-06T21:38:55.518Z,26.50
2019-02-06T21:41:27.752Z,27.37
2019-02-06T21:43:59.110Z,28.70
2019-02-06T21:46:31.342Z,28.10
2019-02-06T21:49:02.147Z,25.07
2019-02-06T21:51:33.963Z,26.60
2019-02-06T21:54:05.432Z,25.73
2019-02-06T21:56:38.543Z,26.90
2019-02-06T21:59:11.953Z,26.30
2019-02-06T22:01:43.895Z,25.90
2019-02-06T22:04:17.417Z,26.33
2019-02-06T22:06:48.076Z,24.33
2019-02-06T22:09:18.314Z,25.17
2019-02-06T22:11:48.914Z,24.57
2019-02-06T22:14:20.618Z,25.97
2019-02-06T22:16:52.106Z,26.43
2019-02-06T22:19:23.241Z,24.97
2019-02-06T22:21:53.319Z,24.37
2019-02-06T22:24:24.144Z,23.67
2019-02-06T22:26:55.192Z,24.80
2019-02-06T22:29:26.661Z,25.00
2019-02-06T22:31:58.516Z,25.17
2019-02-06T22:34:29.400Z,23.10
2019-02-06T22:36:59.923Z,23.90
2019-02-06T22:39:31.118Z,26.90
2019-02-06T22:42:02.042Z,25.60
2019-02-06T22:44:32.695Z,22.47
2019-02-06T22:47:03.505Z,24.13
2019-02-06T22:49:34.321Z,25.70
2019-02-06T22:52:05.272Z,25.07
2019-02-06T22:54:35.988Z,21.87
2019-02-06T22:57:06.676Z,23.00
2019-02-06T22:59:37.655Z,21.23
2019-02-06T23:02:08.207Z,22.90
2019-02-06T23:04:39.971Z,22.47
2019-02-06T23:07:11.712Z,23.47
2019-02-06T23:09:42.380Z,23.37
2019-02-06T23:12:13.534Z,23.03
2019-02-06T23:14:44.921Z,22.00
2019-02-06T23:17:15.430Z,21.17
2019-02-06T23:19:46.036Z,21.63
2019-02-06T23:22:17.073Z,20.93
2019-02-06T23:24:48.225Z,22.67
2019-02-06T23:27:19.284Z,21.27
2019-02-06T23:29:49.903Z,22.23
2019-02-06T23:32:20.576Z,21.30
2019-02-06T23:34:51.091Z,22.17
2019-02-06T23:37:22.318Z,23.60
2019-02-06T23:39:53.099Z,22.40
2019-02-06T23:42:25.356Z,24.80
2019-02-06T23:45:13.262Z,22.67
2019-02-06T23:47:45.097Z,24.63
2019-02-06T23:50:15.893Z,23.73
2019-02-06T23:52:47.339Z,22.37
2019-02-06T23:55:19.226Z,24.73
2019-02-06T23:57:51.220Z,22.67
